createdAt,value
2019-03-06T00:00:45.993Z,7.72
2019-03-06T00:03:20.453Z,10.13
2019-03-06T00:05:53.187Z,9.15
2019-03-06T00:08:24.243Z,18.30
2019-03-06T00:16:32.513Z,8.38
2019-03-06T00:19:06.498Z,13.58
2019-03-06T00:21:38.138Z,11.43
2019-03-06T00:24:09.198Z,10.40
2019-03-06T00:26:40.861Z,15.72
2019-03-06T00:29:24.786Z,10.78
2019-03-06T00:31:53.654Z,14.20
2019-03-06T00:34:39.025Z,8.80
2019-03-06T00:37:41.886Z,10.23
2019-03-06T00:40:43.400Z,9.28
2019-03-06T00:43:16.457Z,9.40
2019-03-06T00:45:51.161Z,10.63
2019-03-06T00:48:25.064Z,14.75
2019-03-06T00:51:13.628Z,26.15
2019-03-06T00:53:47.753Z,20.95
2019-03-06T00:56:20.518Z,20.05
2019-03-06T00:58:53.703Z,13.22
2019-03-06T01:01:27.201Z,12.40
2019-03-06T01:04:07.484Z,15.08
2019-03-06T01:06:40.424Z,14.83
2019-03-06T01:12:12.270Z,18.48
2019-03-06T01:14:53.166Z,14.65
2019-03-06T01:17:26.674Z,12.88
2019-03-06T01:19:58.049Z,14.33
2019-03-06T01:22:58.198Z,15.00
2019-03-06T01:25:17.131Z,20.97
2019-03-06T01:28:10.563Z,16.32
2019-03-06T01:30:46.154Z,20.77
2019-03-06T01:33:45.154Z,18.05
2019-03-06T01:36:30.694Z,21.68
2019-03-06T01:39:24.377Z,16.52
2019-03-06T01:42:05.968Z,17.57
2019-03-06T01:44:45.002Z,18.20
2019-03-06T01:47:17.911Z,18.07
2019-03-06T01:49:52.852Z,22.05
2019-03-06T01:52:27.654Z,27.00
2019-03-06T01:55:21.308Z,24.10
2019-03-06T01:57:52.860Z,24.50
2019-03-06T02:00:52.811Z,19.65
2019-03-06T02:03:30.276Z,22.50
2019-03-06T02:06:04.572Z,27.95
2019-03-06T02:08:40.474Z,30.20
2019-03-06T02:11:34.898Z,29.05
2019-03-06T02:14:24.739Z,23.70
2019-03-06T02:17:04.874Z,26.82
2019-03-06T02:19:36.103Z,32.20
2019-03-06T02:22:13.800Z,28.50
2019-03-06T02:25:07.771Z,26.02
2019-03-06T02:27:40.149Z,21.73
2019-03-06T02:30:23.309Z,25.62
2019-03-06T02:33:25.537Z,32.23
2019-03-06T02:36:20.494Z,31.35
2019-03-06T02:38:50.417Z,29.20
2019-03-06T02:41:38.004Z,31.00
2019-03-06T02:44:03.830Z,24.18
2019-03-06T02:46:35.426Z,23.83
2019-03-06T02:49:11.293Z,29.95
2019-03-06T02:51:42.840Z,23.95
2019-03-06T02:54:32.875Z,24.10
2019-03-06T02:57:05.051Z,24.40
2019-03-06T03:00:03.980Z,21.07
2019-03-06T03:02:42.636Z,29.72
2019-03-06T03:05:49.843Z,25.97
2019-03-06T03:08:31.382Z,27.60
2019-03-06T03:11:24.608Z,27.13
2019-03-06T03:13:58.470Z,28.45
2019-03-06T03:16:36.659Z,30.15
2019-03-06T03:22:08.338Z,23.00
2019-03-06T03:24:50.784Z,27.45
2019-03-06T03:27:21.071Z,26.48
2019-03-06T03:29:58.855Z,25.35
2019-03-06T03:32:31.871Z,28.35
2019-03-06T03:35:31.026Z,31.37
2019-03-06T03:38:07.190Z,26.35
2019-03-06T03:40:39.250Z,30.08
2019-03-06T03:43:16.456Z,29.63
2019-03-06T03:45:48.867Z,29.02
2019-03-06T03:48:33.477Z,37.58
2019-03-06T03:51:56.898Z,32.13
2019-03-06T03:53:49.163Z,32.10
2019-03-06T03:56:34.856Z,41.33
2019-03-06T03:59:14.617Z,28.07
2019-03-06T04:01:44.353Z,28.70
2019-03-06T04:04:19.956Z,34.95
2019-03-06T04:07:11.024Z,32.08
2019-03-06T04:09:48.461Z,36.55
2019-03-06T04:13:44.833Z,32.20
2019-03-06T04:16:22.026Z,34.83
2019-03-06T04:18:57.907Z,30.45
2019-03-06T04:21:39.631Z,33.70
2019-03-06T04:24:12.563Z,33.00
2019-03-06T04:26:49.613Z,42.35
2019-03-06T04:29:23.929Z,34.53
2019-03-06T04:32:10.845Z,32.40
2019-03-06T04:34:47.703Z,43.52
2019-03-06T04:37:23.789Z,35.38
2019-03-06T04:40:02.535Z,33.58
2019-03-06T04:42:48.008Z,31.12
2019-03-06T04:45:19.501Z,32.70
2019-03-06T04:47:50.881Z,32.33
2019-03-06T04:50:30.800Z,37.08
2019-03-06T04:53:04.738Z,37.75
2019-03-06T04:55:39.678Z,44.23
2019-03-06T04:58:11.340Z,33.65
2019-03-06T05:04:57.516Z,35.73
2019-03-06T05:07:57.335Z,36.68
2019-03-06T05:10:42.226Z,31.73
2019-03-06T05:13:18.667Z,35.20
2019-03-06T05:16:10.730Z,27.80
2019-03-06T05:19:02.215Z,32.40
2019-03-06T05:21:44.252Z,26.75
2019-03-06T05:24:23.435Z,24.63
2019-03-06T05:27:43.707Z,28.32
2019-03-06T05:30:25.802Z,23.73
2019-03-06T05:33:16.115Z,32.45
2019-03-06T05:36:34.062Z,23.75
2019-03-06T05:39:21.268Z,31.57
2019-03-06T05:42:37.617Z,23.27
2019-03-06T05:45:15.896Z,28.17
2019-03-06T05:47:59.607Z,23.15
2019-03-06T05:53:38.080Z,23.75
2019-03-06T05:56:21.086Z,22.02
2019-03-06T05:59:15.813Z,27.07
2019-03-06T06:02:01.612Z,22.50
2019-03-06T06:05:24.999Z,25.90
2019-03-06T06:07:37.975Z,35.48
2019-03-06T06:10:17.544Z,26.52
2019-03-06T06:12:47.676Z,25.50
2019-03-06T06:15:18.031Z,23.27
2019-03-06T06:17:48.103Z,26.05
2019-03-06T06:20:18.014Z,25.45
2019-03-06T06:23:19.849Z,23.47
2019-03-06T06:25:50.062Z,23.07
2019-03-06T06:28:21.626Z,18.82
2019-03-06T06:30:51.546Z,27.40
2019-03-06T06:33:21.722Z,18.37
2019-03-06T06:35:51.859Z,21.42
2019-03-06T06:38:22.115Z,20.23
2019-03-06T06:40:52.153Z,23.05
2019-03-06T06:43:22.483Z,21.45
2019-03-06T06:45:52.620Z,24.32
2019-03-06T06:48:24.389Z,17.60
2019-03-06T06:51:33.278Z,23.05
2019-03-06T06:54:15.086Z,22.20
2019-03-06T06:57:48.003Z,18.00
2019-03-06T07:01:19.573Z,21.75
2019-03-06T07:05:27.501Z,20.88
2019-03-06T07:08:23.001Z,20.08
2019-03-06T07:11:15.423Z,24.92
2019-03-06T07:14:23.228Z,26.00
2019-03-06T07:17:11.779Z,26.25
2019-03-06T07:20:07.251Z,15.80
2019-03-06T07:22:52.008Z,16.90
2019-03-06T07:25:41.655Z,19.57
2019-03-06T07:28:30.665Z,15.60
2019-03-06T07:31:46.843Z,15.25
2019-03-06T07:34:54.483Z,18.37
2019-03-06T07:37:44.471Z,15.50
2019-03-06T07:40:31.063Z,17.12
2019-03-06T07:43:11.662Z,16.07
2019-03-06T07:46:06.700Z,17.75
2019-03-06T07:49:11.152Z,20.17
2019-03-06T07:55:08.578Z,13.10
2019-03-06T07:58:33.163Z,21.05
2019-03-06T08:01:16.853Z,18.30
2019-03-06T08:04:07.683Z,15.58
2019-03-06T08:06:38.193Z,18.92
2019-03-06T08:09:13.027Z,17.67
2019-03-06T08:12:00.922Z,17.60
2019-03-06T08:14:51.878Z,11.73
2019-03-06T08:17:47.994Z,16.60
2019-03-06T08:20:45.558Z,13.10
2019-03-06T08:23:22.471Z,15.20
2019-03-06T08:25:52.660Z,12.88
2019-03-06T08:28:23.390Z,9.48
2019-03-06T08:31:19.748Z,8.28
2019-03-06T08:33:49.882Z,7.62
2019-03-06T08:36:20.222Z,6.45
2019-03-06T08:38:50.174Z,9.25
2019-03-06T08:41:20.500Z,4.90
2019-03-06T08:43:51.211Z,5.15
2019-03-06T08:46:40.483Z,4.87
2019-03-06T08:49:30.120Z,8.85
2019-03-06T08:52:17.246Z,7.47
2019-03-06T08:55:03.192Z,13.83
2019-03-06T08:58:01.812Z,17.00
2019-03-06T09:01:09.400Z,6.87
2019-03-06T09:03:46.373Z,8.88
2019-03-06T09:06:22.667Z,10.15
2019-03-06T09:09:21.502Z,11.65
2019-03-06T09:12:09.046Z,6.83
2019-03-06T09:15:01.611Z,8.08
2019-03-06T09:17:50.049Z,9.80
2019-03-06T09:20:47.615Z,7.05
2019-03-06T09:23:36.710Z,11.45
2019-03-06T09:26:18.802Z,7.30
2019-03-06T09:29:01.508Z,7.12
2019-03-06T09:31:40.360Z,8.63
2019-03-06T09:34:33.060Z,9.23
2019-03-06T09:37:20.827Z,10.93
2019-03-06T09:40:19.163Z,5.65
2019-03-06T09:43:11.251Z,7.80
2019-03-06T09:45:53.256Z,8.13
2019-03-06T09:48:45.567Z,5.53
2019-03-06T09:51:33.673Z,2.75
2019-03-06T09:54:29.700Z,3.67
2019-03-06T09:57:15.852Z,7.92
2019-03-06T10:00:13.355Z,3.55
2019-03-06T10:03:12.066Z,4.40
2019-03-06T10:06:01.783Z,3.77
2019-03-06T10:08:53.951Z,2.80
2019-03-06T10:11:45.520Z,4.53
2019-03-06T10:14:20.203Z,2.42
2019-03-06T10:16:56.535Z,23.35
2019-03-06T10:19:39.836Z,9.38
2019-03-06T10:22:09.747Z,6.25
2019-03-06T10:24:40.095Z,5.10
2019-03-06T10:27:10.917Z,5.70
2019-03-06T10:29:40.968Z,5.30
2019-03-06T10:32:11.050Z,6.00
2019-03-06T10:34:40.983Z,4.00
2019-03-06T10:37:11.020Z,5.20
2019-03-06T10:39:41.562Z,5.42
2019-03-06T10:42:11.787Z,3.35
2019-03-06T10:44:42.085Z,6.22
2019-03-06T10:47:12.207Z,6.97
2019-03-06T10:49:42.271Z,6.50
2019-03-06T10:52:12.593Z,4.28
2019-03-06T10:54:45.022Z,7.42
2019-03-06T10:57:15.138Z,3.95
2019-03-06T10:59:45.279Z,4.87
2019-03-06T11:02:15.293Z,5.47
2019-03-06T11:04:55.907Z,4.78
2019-03-06T11:07:25.929Z,3.00
2019-03-06T11:09:56.122Z,6.20
2019-03-06T11:12:27.262Z,9.93
2019-03-06T11:14:57.623Z,5.60
2019-03-06T11:17:27.704Z,3.27
2019-03-06T11:19:58.020Z,4.10
2019-03-06T11:22:27.884Z,5.05
2019-03-06T11:24:57.776Z,3.77
2019-03-06T11:27:27.752Z,2.87
2019-03-06T11:29:57.756Z,2.52
2019-03-06T11:32:28.412Z,3.83
2019-03-06T11:34:58.323Z,2.60
2019-03-06T11:37:28.363Z,3.27
2019-03-06T11:39:58.280Z,2.10
2019-03-06T11:42:28.195Z,5.17
2019-03-06T11:44:58.158Z,5.25
2019-03-06T11:47:28.054Z,3.80
2019-03-06T11:49:58.390Z,2.87
2019-03-06T11:52:28.642Z,2.30
2019-03-06T11:55:05.933Z,1.65
2019-03-06T11:57:30.813Z,1.30
2019-03-06T12:00:04.311Z,4.03
2019-03-06T12:02:34.854Z,2.98
2019-03-06T12:05:05.330Z,1.22
2019-03-06T12:07:35.288Z,1.77
2019-03-06T12:10:05.493Z,2.55
2019-03-06T12:12:35.435Z,2.37
2019-03-06T12:15:06.875Z,1.42
2019-03-06T12:17:36.889Z,2.52
2019-03-06T12:20:08.932Z,1.98
2019-03-06T12:22:39.022Z,3.70
2019-03-06T12:25:10.160Z,0.90
2019-03-06T12:27:40.429Z,1.40
2019-03-06T12:30:10.701Z,3.22
2019-03-06T12:32:40.801Z,2.50
2019-03-06T12:35:10.969Z,2.15
2019-03-06T12:37:46.949Z,2.40
2019-03-06T12:40:14.842Z,3.42
2019-03-06T12:42:45.098Z,0.82
2019-03-06T12:45:15.656Z,1.35
2019-03-06T12:47:55.187Z,2.35
2019-03-06T12:50:21.811Z,1.20
2019-03-06T12:52:51.869Z,1.02
2019-03-06T12:55:23.200Z,4.03
2019-03-06T12:57:59.316Z,2.65
2019-03-06T13:00:25.642Z,1.55
2019-03-06T13:02:56.284Z,2.47
2019-03-06T13:05:29.296Z,1.17
2019-03-06T13:07:59.200Z,2.27
2019-03-06T13:10:29.055Z,1.30
2019-03-06T13:12:59.025Z,1.50
2019-03-06T13:15:28.892Z,5.00
2019-03-06T13:17:58.910Z,1.55
2019-03-06T13:20:29.086Z,1.37
2019-03-06T13:22:59.250Z,0.78
2019-03-06T13:25:30.265Z,3.55
2019-03-06T13:28:00.251Z,1.70
2019-03-06T13:30:30.715Z,2.62
2019-03-06T13:33:20.209Z,1.67
2019-03-06T13:35:50.255Z,0.93
2019-03-06T13:38:20.306Z,2.30
2019-03-06T13:40:50.188Z,1.50
2019-03-06T13:43:20.133Z,0.88
2019-03-06T13:45:50.534Z,1.67
2019-03-06T13:48:20.536Z,2.50
2019-03-06T13:50:50.768Z,3.15
2019-03-06T13:53:21.159Z,0.98
2019-03-06T13:55:51.349Z,1.03
2019-03-06T13:58:21.451Z,1.50
2019-03-06T14:00:51.730Z,3.40
2019-03-06T14:03:22.426Z,4.33
2019-03-06T14:05:52.622Z,2.93
2019-03-06T14:08:22.950Z,1.30
2019-03-06T14:10:53.040Z,1.27
2019-03-06T14:13:22.997Z,1.37
2019-03-06T14:15:54.147Z,5.47
2019-03-06T14:18:24.761Z,1.63
2019-03-06T14:20:54.870Z,1.27
2019-03-06T14:23:34.778Z,2.10
2019-03-06T14:25:58.588Z,1.80
2019-03-06T14:28:28.916Z,1.90
2019-03-06T14:30:58.884Z,1.53
2019-03-06T14:33:29.479Z,2.10
2019-03-06T14:35:59.475Z,1.47
2019-03-06T14:38:30.016Z,1.77
2019-03-06T14:41:00.264Z,1.40
2019-03-06T14:43:31.798Z,14.73
2019-03-06T14:46:01.654Z,2.58
2019-03-06T14:48:31.827Z,1.43
2019-03-06T14:51:01.931Z,0.93
2019-03-06T14:53:32.223Z,1.60
2019-03-06T14:56:02.242Z,3.70
2019-03-06T14:58:32.848Z,5.20
2019-03-06T15:01:04.121Z,2.93
2019-03-06T15:03:34.193Z,11.43
2019-03-06T15:06:04.587Z,1.57
2019-03-06T15:08:35.497Z,2.00
2019-03-06T15:11:05.442Z,1.73
2019-03-06T15:13:36.170Z,1.70
2019-03-06T15:16:07.034Z,9.10
2019-03-06T15:18:37.317Z,3.92
2019-03-06T15:21:07.410Z,2.25
2019-03-06T15:23:37.843Z,1.40
2019-03-06T15:26:09.965Z,4.17
2019-03-06T15:28:40.172Z,4.33
2019-03-06T15:31:10.981Z,5.28
2019-03-06T15:33:41.101Z,13.15
2019-03-06T15:36:11.188Z,2.50
2019-03-06T15:38:41.170Z,2.65
2019-03-06T15:41:11.173Z,4.00
2019-03-06T15:43:41.171Z,2.12
2019-03-06T15:46:11.352Z,2.55
2019-03-06T15:48:41.814Z,9.10
2019-03-06T15:51:11.746Z,2.47
2019-03-06T15:53:42.453Z,4.83
2019-03-06T15:56:14.171Z,2.93
2019-03-06T15:58:44.990Z,2.87
2019-03-06T16:01:15.149Z,4.10
2019-03-06T16:03:45.398Z,4.50
2019-03-06T16:06:20.282Z,3.70
2019-03-06T16:08:47.751Z,5.37
2019-03-06T16:11:19.705Z,7.45
2019-03-06T16:13:50.703Z,11.35
2019-03-06T16:16:20.690Z,7.95
2019-03-06T16:18:51.021Z,4.70
2019-03-06T16:21:20.904Z,5.17
2019-03-06T16:23:50.990Z,5.28
2019-03-06T16:26:21.099Z,6.60
2019-03-06T16:28:51.362Z,4.30
2019-03-06T16:31:25.834Z,4.30
2019-03-06T16:33:57.205Z,5.05
2019-03-06T16:36:27.208Z,5.10
2019-03-06T16:38:57.240Z,4.60
2019-03-06T16:41:27.282Z,2.87
2019-03-06T16:43:57.595Z,10.80
2019-03-06T16:46:27.612Z,2.47
2019-03-06T16:48:57.627Z,7.65
2019-03-06T16:51:27.458Z,5.55
2019-03-06T16:53:57.759Z,5.20
2019-03-06T16:56:28.668Z,9.35
2019-03-06T16:58:58.872Z,6.03
2019-03-06T17:01:28.906Z,6.87
2019-03-06T17:03:58.845Z,4.00
2019-03-06T17:06:28.819Z,9.65
2019-03-06T17:08:58.898Z,8.60
2019-03-06T17:11:29.266Z,6.70
2019-03-06T17:13:59.445Z,7.95
2019-03-06T17:16:29.637Z,3.95
2019-03-06T17:18:59.739Z,5.60
2019-03-06T17:24:34.155Z,6.42
2019-03-06T17:27:04.485Z,8.98
2019-03-06T17:29:34.733Z,15.20
2019-03-06T17:32:04.821Z,9.25
2019-03-06T17:34:37.184Z,12.55
2019-03-06T17:37:07.996Z,11.40
2019-03-06T17:39:43.120Z,13.28
2019-03-06T17:42:15.378Z,12.85
2019-03-06T17:44:45.568Z,12.80
2019-03-06T17:47:15.640Z,10.13
2019-03-06T17:49:47.310Z,11.38
2019-03-06T17:52:17.606Z,10.68
2019-03-06T17:54:50.140Z,13.08
2019-03-06T17:57:20.362Z,10.32
2019-03-06T17:59:51.202Z,10.98
2019-03-06T18:02:21.854Z,7.55
2019-03-06T18:04:52.357Z,10.15
2019-03-06T18:07:22.333Z,8.20
2019-03-06T18:09:52.410Z,9.90
2019-03-06T18:12:22.598Z,11.12
2019-03-06T18:15:01.189Z,16.25
2019-03-06T18:17:28.495Z,17.10
2019-03-06T18:19:58.660Z,8.60
2019-03-06T18:22:31.142Z,14.83
2019-03-06T18:25:01.147Z,11.70
2019-03-06T18:27:31.325Z,8.53
2019-03-06T18:30:01.832Z,6.65
2019-03-06T18:32:31.726Z,7.42
2019-03-06T18:35:11.549Z,7.58
2019-03-06T18:37:41.539Z,7.97
2019-03-06T18:40:14.637Z,6.15
2019-03-06T18:42:44.674Z,22.07
2019-03-06T18:45:34.821Z,12.33
2019-03-06T18:48:11.031Z,12.07
2019-03-06T18:51:30.253Z,12.68
2019-03-06T18:54:23.943Z,11.12
2019-03-06T18:56:50.421Z,11.28
2019-03-06T18:59:29.886Z,16.70
2019-03-06T19:06:49.480Z,7.03
2019-03-06T19:10:25.732Z,6.72
2019-03-06T19:14:09.661Z,15.72
2019-03-06T19:18:19.986Z,8.50
2019-03-06T19:24:26.322Z,8.95
2019-03-06T19:26:59.071Z,18.62
2019-03-06T19:29:32.803Z,11.68
2019-03-06T19:32:04.871Z,9.15
2019-03-06T19:34:37.492Z,9.50
2019-03-06T19:37:10.477Z,9.60
2019-03-06T19:39:46.638Z,14.00
2019-03-06T19:42:25.966Z,10.78
2019-03-06T19:44:58.855Z,11.68
2019-03-06T19:47:56.428Z,5.40
2019-03-06T19:50:29.795Z,14.63
2019-03-06T19:58:03.546Z,16.42
2019-03-06T20:00:46.473Z,13.50
2019-03-06T20:07:58.827Z,14.95
2019-03-06T20:10:34.960Z,10.38
2019-03-06T20:13:05.555Z,11.08
2019-03-06T20:15:39.693Z,12.82
2019-03-06T20:18:38.590Z,9.35
2019-03-06T20:21:11.531Z,9.45
2019-03-06T20:35:24.696Z,8.43
2019-03-06T20:37:56.331Z,12.35
2019-03-06T20:40:53.876Z,5.78
2019-03-06T20:44:02.986Z,10.15
2019-03-06T20:47:35.152Z,7.65
2019-03-06T20:49:27.722Z,17.98
2019-03-06T20:52:09.967Z,14.40
2019-03-06T20:54:44.763Z,8.58
2019-03-06T20:57:15.024Z,10.55
2019-03-06T20:59:45.705Z,9.13
2019-03-06T21:02:15.846Z,9.35
2019-03-06T21:05:08.051Z,11.90
2019-03-06T21:07:44.970Z,10.95
2019-03-06T21:10:09.772Z,13.18
2019-03-06T21:12:39.832Z,9.20
2019-03-06T21:15:11.469Z,8.63
2019-03-06T21:17:42.161Z,11.00
2019-03-06T21:20:18.315Z,7.80
2019-03-06T21:23:13.168Z,7.03
2019-03-06T21:25:53.284Z,9.05
2019-03-06T21:28:57.244Z,10.58
2019-03-06T21:31:27.719Z,12.23
2019-03-06T21:33:58.626Z,9.20
2019-03-06T21:36:36.541Z,11.57
2019-03-06T21:39:22.033Z,10.82
2019-03-06T21:42:38.038Z,8.75
2019-03-06T21:45:15.900Z,11.57
2019-03-06T21:48:09.433Z,10.65
2019-03-06T21:50:41.477Z,11.80
2019-03-06T21:53:13.771Z,11.22
2019-03-06T21:55:48.185Z,8.08
2019-03-06T21:58:31.192Z,12.82
2019-03-06T22:01:07.156Z,9.28
2019-03-06T22:03:47.005Z,9.90
2019-03-06T22:06:31.012Z,9.90
2019-03-06T22:09:02.040Z,6.22
2019-03-06T22:11:32.333Z,14.03
2019-03-06T22:14:05.406Z,7.42
2019-03-06T22:16:35.559Z,13.88
2019-03-06T22:19:05.660Z,11.28
2019-03-06T22:21:58.078Z,7.55
2019-03-06T22:24:28.168Z,11.15
2019-03-06T22:27:01.361Z,9.65
2019-03-06T22:29:45.757Z,9.90
2019-03-06T22:33:41.441Z,8.95
2019-03-06T22:36:55.830Z,16.50
2019-03-06T22:39:31.718Z,14.30
2019-03-06T22:42:33.709Z,8.98
2019-03-06T22:45:04.138Z,6.85
2019-03-06T22:47:34.110Z,9.50
2019-03-06T22:50:05.546Z,9.70
2019-03-06T22:52:35.491Z,9.33
2019-03-06T22:55:06.474Z,7.45
2019-03-06T22:57:36.451Z,11.12
2019-03-06T23:00:48.118Z,12.00
2019-03-06T23:03:18.454Z,11.80
2019-03-06T23:05:48.448Z,10.72
2019-03-06T23:08:18.461Z,12.40
2019-03-06T23:10:48.481Z,11.57
2019-03-06T23:13:18.435Z,11.48
2019-03-06T23:15:48.311Z,7.65
2019-03-06T23:18:18.293Z,7.05
2019-03-06T23:20:48.169Z,10.45
2019-03-06T23:23:18.067Z,7.60
2019-03-06T23:25:48.065Z,8.98
2019-03-06T23:28:27.135Z,13.38
2019-03-06T23:30:57.004Z,11.73
2019-03-06T23:33:31.160Z,6.53
2019-03-06T23:36:04.609Z,7.78
2019-03-06T23:38:34.858Z,9.55
2019-03-06T23:41:14.711Z,9.65
2019-03-06T23:43:55.285Z,8.63
2019-03-06T23:46:27.003Z,4.90
2019-03-06T23:49:02.752Z,14.80
2019-03-06T23:51:35.748Z,6.53
2019-03-06T23:54:07.125Z,9.65
2019-03-06T23:56:46.733Z,3.52
2019-03-06T23:59:23.053Z,9.75
